sensor_id;sensor_type;location;lat;lon;timestamp;temperature;humidity
17571;DHT22;8903;52.220;20.978;2023-03-17T00:00:55;1.30;99.90
17571;DHT22;8903;52.220;20.978;2023-03-17T00:03:24;1.30;99.90
17571;DHT22;8903;52.220;20.978;2023-03-17T00:05:52;1.20;99.90
17571;DHT22;8903;52.220;20.978;2023-03-17T00:08:21;1.20;99.90
17571;DHT22;8903;52.220;20.978;2023-03-17T00:10:50;1.20;99.90
17571;DHT22;8903;52.220;20.978;2023-03-17T00:13:17;1.10;99.90
17571;DHT22;8903;52.220;20.978;2023-03-17T00:15:52;1.10;99.90
17571;DHT22;8903;52.220;20.978;2023-03-17T00:18:21;1.10;99.90
17571;DHT22;8903;52.220;20.978;2023-03-17T00:20:48;1.00;99.90
17571;DHT22;8903;52.220;20.978;2023-03-17T00:23:18;1.00;99.90
17571;DHT22;8903;52.220;20.978;2023-03-17T00:25:46;0.90;99.90
17571;DHT22;8903;52.220;20.978;2023-03-17T00:28:17;0.90;99.90
17571;DHT22;8903;52.220;20.978;2023-03-17T00:30:47;0.90;99.90
17571;DHT22;8903;52.220;20.978;2023-03-17T00:33:15;0.80;99.90
17571;DHT22;8903;52.220;20.978;2023-03-17T00:35:44;0.80;99.90
17571;DHT22;8903;52.220;20.978;2023-03-17T00:38:15;0.80;99.90
17571;DHT22;8903;52.220;20.978;2023-03-17T00:40:42;0.70;99.90
17571;DHT22;8903;52.220;20.978;2023-03-17T00:43:11;0.70;99.90
17571;DHT22;8903;52.220;20.978;2023-03-17T00:45:39;0.70;99.90
17571;DHT22;8903;52.220;20.978;2023-03-17T00:48:12;0.70;99.90
17571;DHT22;8903;52.220;20.978;2023-03-17T00:50:43;0.60;99.90
17571;DHT22;8903;52.220;20.978;2023-03-17T00:53:13;0.60;99.90
17571;DHT22;8903;52.220;20.978;2023-03-17T00:55:41;0.60;99.90
17571;DHT22;8903;52.220;20.978;2023-03-17T00:58:11;0.50;99.90
17571;DHT22;8903;52.220;20.978;2023-03-17T01:00:40;0.50;99.90
17571;DHT22;8903;52.220;20.978;2023-03-17T01:03:10;0.50;99.90
17571;DHT22;8903;52.220;20.978;2023-03-17T01:05:38;0.50;99.90
17571;DHT22;8903;52.220;20.978;2023-03-17T01:08:10;0.50;99.90
17571;DHT22;8903;52.220;20.978;2023-03-17T01:10:40;0.50;99.90
17571;DHT22;8903;52.220;20.978;2023-03-17T01:13:10;0.50;99.90
17571;DHT22;8903;52.220;20.978;2023-03-17T01:15:42;0.50;99.90
17571;DHT22;8903;52.220;20.978;2023-03-17T01:18:11;0.50;99.90
17571;DHT22;8903;52.220;20.978;2023-03-17T01:20:39;0.50;99.90
17571;DHT22;8903;52.220;20.978;2023-03-17T01:23:07;0.60;99.90
17571;DHT22;8903;52.220;20.978;2023-03-17T01:25:36;0.60;99.90
17571;DHT22;8903;52.220;20.978;2023-03-17T01:28:04;0.60;99.90
17571;DHT22;8903;52.220;20.978;2023-03-17T01:30:33;0.50;99.90
17571;DHT22;8903;52.220;20.978;2023-03-17T01:33:02;0.50;99.90
17571;DHT22;8903;52.220;20.978;2023-03-17T01:35:31;0.50;99.90
17571;DHT22;8903;52.220;20.978;2023-03-17T01:38:00;0.60;99.90
17571;DHT22;8903;52.220;20.978;2023-03-17T01:40:30;0.50;99.90
17571;DHT22;8903;52.220;20.978;2023-03-17T01:43:02;0.50;99.90
17571;DHT22;8903;52.220;20.978;2023-03-17T01:46:13;0.40;99.90
17571;DHT22;8903;52.220;20.978;2023-03-17T01:48:44;0.40;99.90
17571;DHT22;8903;52.220;20.978;2023-03-17T01:51:16;0.40;99.90
17571;DHT22;8903;52.220;20.978;2023-03-17T01:53:45;0.40;99.90
17571;DHT22;8903;52.220;20.978;2023-03-17T01:56:13;0.40;99.90
17571;DHT22;8903;52.220;20.978;2023-03-17T01:58:43;0.40;99.90
17571;DHT22;8903;52.220;20.978;2023-03-17T02:01:11;0.50;99.90
17571;DHT22;8903;52.220;20.978;2023-03-17T02:03:39;0.40;99.90
17571;DHT22;8903;52.220;20.978;2023-03-17T02:06:06;0.40;99.90
17571;DHT22;8903;52.220;20.978;2023-03-17T02:08:34;0.40;99.90
17571;DHT22;8903;52.220;20.978;2023-03-17T02:11:01;0.40;99.90
17571;DHT22;8903;52.220;20.978;2023-03-17T02:13:30;0.40;99.90
17571;DHT22;8903;52.220;20.978;2023-03-17T02:15:59;0.30;99.90
17571;DHT22;8903;52.220;20.978;2023-03-17T02:18:26;0.30;99.90
17571;DHT22;8903;52.220;20.978;2023-03-17T02:21:29;0.30;99.90
17571;DHT22;8903;52.220;20.978;2023-03-17T02:23:59;0.30;99.90
17571;DHT22;8903;52.220;20.978;2023-03-17T02:26:29;0.30;99.90
17571;DHT22;8903;52.220;20.978;2023-03-17T02:28:58;0.30;99.90
17571;DHT22;8903;52.220;20.978;2023-03-17T02:31:26;0.30;99.90
17571;DHT22;8903;52.220;20.978;2023-03-17T02:33:53;0.30;99.90
17571;DHT22;8903;52.220;20.978;2023-03-17T02:36:21;0.30;99.90
17571;DHT22;8903;52.220;20.978;2023-03-17T02:38:49;0.30;99.90
17571;DHT22;8903;52.220;20.978;2023-03-17T02:41:17;0.30;99.90
17571;DHT22;8903;52.220;20.978;2023-03-17T02:43:44;0.30;99.90
17571;DHT22;8903;52.220;20.978;2023-03-17T02:46:11;0.30;99.90
17571;DHT22;8903;52.220;20.978;2023-03-17T02:48:38;0.30;99.90
17571;DHT22;8903;52.220;20.978;2023-03-17T02:51:06;0.30;99.90
17571;DHT22;8903;52.220;20.978;2023-03-17T02:53:33;0.20;99.90
17571;DHT22;8903;52.220;20.978;2023-03-17T02:56:01;0.20;99.90
17571;DHT22;8903;52.220;20.978;2023-03-17T02:58:28;0.30;99.90
17571;DHT22;8903;52.220;20.978;2023-03-17T03:00:56;0.20;99.90
17571;DHT22;8903;52.220;20.978;2023-03-17T03:03:23;0.20;99.90
17571;DHT22;8903;52.220;20.978;2023-03-17T03:05:50;0.20;99.90
17571;DHT22;8903;52.220;20.978;2023-03-17T03:08:17;0.20;99.90
17571;DHT22;8903;52.220;20.978;2023-03-17T03:10:44;0.20;99.90
17571;DHT22;8903;52.220;20.978;2023-03-17T03:13:13;0.20;99.90
17571;DHT22;8903;52.220;20.978;2023-03-17T03:15:41;0.20;99.90
17571;DHT22;8903;52.220;20.978;2023-03-17T03:18:08;0.20;99.90
17571;DHT22;8903;52.220;20.978;2023-03-17T03:20:37;0.30;99.90
17571;DHT22;8903;52.220;20.978;2023-03-17T03:23:04;0.20;99.90
17571;DHT22;8903;52.220;20.978;2023-03-17T03:25:31;0.20;99.90
17571;DHT22;8903;52.220;20.978;2023-03-17T03:27:58;0.20;99.90
17571;DHT22;8903;52.220;20.978;2023-03-17T03:30:27;0.20;99.90
17571;DHT22;8903;52.220;20.978;2023-03-17T03:32:54;0.20;99.90
17571;DHT22;8903;52.220;20.978;2023-03-17T03:35:21;0.20;99.90
17571;DHT22;8903;52.220;20.978;2023-03-17T03:37:48;0.20;99.90
17571;DHT22;8903;52.220;20.978;2023-03-17T03:40:15;0.10;99.90
17571;DHT22;8903;52.220;20.978;2023-03-17T03:42:42;0.10;99.90
17571;DHT22;8903;52.220;20.978;2023-03-17T03:45:10;0.10;99.90
17571;DHT22;8903;52.220;20.978;2023-03-17T03:47:38;0.00;99.90
17571;DHT22;8903;52.220;20.978;2023-03-17T03:50:06;0.00;99.90
17571;DHT22;8903;52.220;20.978;2023-03-17T03:52:33;0.00;99.90
17571;DHT22;8903;52.220;20.978;2023-03-17T03:55:00;0.00;99.90
17571;DHT22;8903;52.220;20.978;2023-03-17T03:57:27;-0.10;99.90
17571;DHT22;8903;52.220;20.978;2023-03-17T03:59:54;-0.10;99.90
17571;DHT22;8903;52.220;20.978;2023-03-17T04:02:21;-0.10;99.90
17571;DHT22;8903;52.220;20.978;2023-03-17T04:04:50;-0.10;99.90
17571;DHT22;8903;52.220;20.978;2023-03-17T04:07:17;-0.10;99.90
17571;DHT22;8903;52.220;20.978;2023-03-17T04:09:45;-0.10;99.90
17571;DHT22;8903;52.220;20.978;2023-03-17T04:12:14;-0.10;99.90
17571;DHT22;8903;52.220;20.978;2023-03-17T04:14:41;-0.10;99.90
17571;DHT22;8903;52.220;20.978;2023-03-17T04:17:09;-0.10;99.90
17571;DHT22;8903;52.220;20.978;2023-03-17T04:19:37;-0.10;99.90
17571;DHT22;8903;52.220;20.978;2023-03-17T04:22:06;-0.10;99.90
17571;DHT22;8903;52.220;20.978;2023-03-17T04:24:34;-0.10;99.90
17571;DHT22;8903;52.220;20.978;2023-03-17T04:27:01;-0.10;99.90
17571;DHT22;8903;52.220;20.978;2023-03-17T04:29:28;-0.20;99.90
17571;DHT22;8903;52.220;20.978;2023-03-17T04:31:56;-0.20;99.90
17571;DHT22;8903;52.220;20.978;2023-03-17T04:34:23;-0.20;99.90
17571;DHT22;8903;52.220;20.978;2023-03-17T04:36:51;-0.20;99.90
17571;DHT22;8903;52.220;20.978;2023-03-17T04:39:20;-0.20;99.90
17571;DHT22;8903;52.220;20.978;2023-03-17T04:41:48;-0.20;99.90
17571;DHT22;8903;52.220;20.978;2023-03-17T04:44:15;-0.20;99.90
17571;DHT22;8903;52.220;20.978;2023-03-17T04:46:42;-0.30;99.90
17571;DHT22;8903;52.220;20.978;2023-03-17T04:49:09;-0.30;99.90
17571;DHT22;8903;52.220;20.978;2023-03-17T04:51:36;-0.30;99.90
17571;DHT22;8903;52.220;20.978;2023-03-17T04:54:04;-0.30;99.90
17571;DHT22;8903;52.220;20.978;2023-03-17T04:56:32;-0.40;99.90
17571;DHT22;8903;52.220;20.978;2023-03-17T04:58:59;-0.40;99.90
17571;DHT22;8903;52.220;20.978;2023-03-17T05:01:26;-0.40;99.90
17571;DHT22;8903;52.220;20.978;2023-03-17T05:03:54;-0.40;99.90
17571;DHT22;8903;52.220;20.978;2023-03-17T05:06:21;-0.40;99.90
17571;DHT22;8903;52.220;20.978;2023-03-17T05:08:48;-0.40;99.90
17571;DHT22;8903;52.220;20.978;2023-03-17T05:11:15;-0.30;99.90
17571;DHT22;8903;52.220;20.978;2023-03-17T05:13:44;-0.30;99.90
17571;DHT22;8903;52.220;20.978;2023-03-17T05:16:10;-0.30;99.90
17571;DHT22;8903;52.220;20.978;2023-03-17T05:18:38;-0.30;99.90
17571;DHT22;8903;52.220;20.978;2023-03-17T05:21:06;-0.20;99.90
17571;DHT22;8903;52.220;20.978;2023-03-17T05:23:34;-0.20;99.90
17571;DHT22;8903;52.220;20.978;2023-03-17T05:26:01;-0.10;99.90
17571;DHT22;8903;52.220;20.978;2023-03-17T05:28:28;-0.10;99.90
17571;DHT22;8903;52.220;20.978;2023-03-17T05:30:57;-0.10;99.90
17571;DHT22;8903;52.220;20.978;2023-03-17T05:33:24;0.00;99.90
17571;DHT22;8903;52.220;20.978;2023-03-17T05:35:52;0.00;99.90
17571;DHT22;8903;52.220;20.978;2023-03-17T05:38:19;0.10;99.90
17571;DHT22;8903;52.220;20.978;2023-03-17T05:40:49;0.10;99.90
17571;DHT22;8903;52.220;20.978;2023-03-17T05:43:17;0.20;99.90
17571;DHT22;8903;52.220;20.978;2023-03-17T05:45:44;0.30;99.90
17571;DHT22;8903;52.220;20.978;2023-03-17T05:48:13;0.40;99.90
17571;DHT22;8903;52.220;20.978;2023-03-17T05:50:41;0.50;99.90
17571;DHT22;8903;52.220;20.978;2023-03-17T05:53:08;0.60;99.90
17571;DHT22;8903;52.220;20.978;2023-03-17T05:55:36;0.70;99.90
17571;DHT22;8903;52.220;20.978;2023-03-17T05:58:03;0.80;99.90
17571;DHT22;8903;52.220;20.978;2023-03-17T06:00:31;0.90;99.90
17571;DHT22;8903;52.220;20.978;2023-03-17T06:02:58;1.00;99.90
17571;DHT22;8903;52.220;20.978;2023-03-17T06:05:27;1.10;99.90
17571;DHT22;8903;52.220;20.978;2023-03-17T06:07:55;1.30;99.90
17571;DHT22;8903;52.220;20.978;2023-03-17T06:10:22;1.40;99.90
17571;DHT22;8903;52.220;20.978;2023-03-17T06:12:49;1.50;99.90
17571;DHT22;8903;52.220;20.978;2023-03-17T06:15:16;1.60;99.90
17571;DHT22;8903;52.220;20.978;2023-03-17T06:17:43;1.80;99.90
17571;DHT22;8903;52.220;20.978;2023-03-17T06:20:11;1.90;99.90
17571;DHT22;8903;52.220;20.978;2023-03-17T06:22:40;1.90;99.90
17571;DHT22;8903;52.220;20.978;2023-03-17T06:25:08;2.00;99.90
17571;DHT22;8903;52.220;20.978;2023-03-17T06:27:36;2.00;99.90
17571;DHT22;8903;52.220;20.978;2023-03-17T06:30:04;2.10;99.90
17571;DHT22;8903;52.220;20.978;2023-03-17T06:32:31;2.00;99.90
17571;DHT22;8903;52.220;20.978;2023-03-17T06:34:58;2.10;99.90
17571;DHT22;8903;52.220;20.978;2023-03-17T06:37:26;2.20;99.90
17571;DHT22;8903;52.220;20.978;2023-03-17T06:39:54;2.30;99.90
17571;DHT22;8903;52.220;20.978;2023-03-17T06:42:22;2.40;99.90
17571;DHT22;8903;52.220;20.978;2023-03-17T06:44:49;2.50;99.90
17571;DHT22;8903;52.220;20.978;2023-03-17T06:47:17;2.60;99.90
17571;DHT22;8903;52.220;20.978;2023-03-17T06:49:44;2.60;99.90
17571;DHT22;8903;52.220;20.978;2023-03-17T06:52:11;2.60;99.90
17571;DHT22;8903;52.220;20.978;2023-03-17T06:54:39;2.60;99.90
17571;DHT22;8903;52.220;20.978;2023-03-17T06:57:08;2.60;99.90
17571;DHT22;8903;52.220;20.978;2023-03-17T06:59:35;2.60;99.90
17571;DHT22;8903;52.220;20.978;2023-03-17T07:02:02;2.70;99.90
17571;DHT22;8903;52.220;20.978;2023-03-17T07:04:30;2.80;99.90
17571;DHT22;8903;52.220;20.978;2023-03-17T07:06:57;2.80;99.90
17571;DHT22;8903;52.220;20.978;2023-03-17T07:09:24;2.90;99.90
17571;DHT22;8903;52.220;20.978;2023-03-17T07:11:51;2.90;99.90
17571;DHT22;8903;52.220;20.978;2023-03-17T07:14:19;2.90;99.90
17571;DHT22;8903;52.220;20.978;2023-03-17T07:16:46;3.00;99.90
17571;DHT22;8903;52.220;20.978;2023-03-17T07:19:14;3.20;99.90
17571;DHT22;8903;52.220;20.978;2023-03-17T07:21:41;3.30;99.90
17571;DHT22;8903;52.220;20.978;2023-03-17T07:24:09;3.50;99.90
17571;DHT22;8903;52.220;20.978;2023-03-17T07:26:37;3.60;99.90
17571;DHT22;8903;52.220;20.978;2023-03-17T07:29:04;3.70;99.90
17571;DHT22;8903;52.220;20.978;2023-03-17T07:31:34;3.70;99.90
17571;DHT22;8903;52.220;20.978;2023-03-17T07:34:03;3.70;99.90
17571;DHT22;8903;52.220;20.978;2023-03-17T07:36:31;3.80;99.90
17571;DHT22;8903;52.220;20.978;2023-03-17T07:38:58;3.90;99.90
17571;DHT22;8903;52.220;20.978;2023-03-17T07:41:26;4.10;99.90
17571;DHT22;8903;52.220;20.978;2023-03-17T07:43:53;4.20;99.90
17571;DHT22;8903;52.220;20.978;2023-03-17T07:46:20;4.30;99.90
17571;DHT22;8903;52.220;20.978;2023-03-17T07:48:49;4.40;99.90
17571;DHT22;8903;52.220;20.978;2023-03-17T07:51:18;4.50;99.90
17571;DHT22;8903;52.220;20.978;2023-03-17T07:53:46;4.60;99.90
17571;DHT22;8903;52.220;20.978;2023-03-17T07:56:15;4.70;99.90
17571;DHT22;8903;52.220;20.978;2023-03-17T07:58:42;4.80;99.90
17571;DHT22;8903;52.220;20.978;2023-03-17T08:01:09;5.00;99.90
17571;DHT22;8903;52.220;20.978;2023-03-17T08:03:36;5.00;99.90
17571;DHT22;8903;52.220;20.978;2023-03-17T08:06:06;5.00;99.90
17571;DHT22;8903;52.220;20.978;2023-03-17T08:08:33;5.10;99.90
17571;DHT22;8903;52.220;20.978;2023-03-17T08:11:02;5.20;99.90
17571;DHT22;8903;52.220;20.978;2023-03-17T08:13:32;5.30;99.90
17571;DHT22;8903;52.220;20.978;2023-03-17T08:15:59;5.50;99.90
17571;DHT22;8903;52.220;20.978;2023-03-17T08:18:26;5.60;99.90
17571;DHT22;8903;52.220;20.978;2023-03-17T08:20:53;5.70;99.90
17571;DHT22;8903;52.220;20.978;2023-03-17T08:23:21;5.80;99.90
17571;DHT22;8903;52.220;20.978;2023-03-17T08:25:54;5.90;99.90
17571;DHT22;8903;52.220;20.978;2023-03-17T08:28:21;6.10;99.90
17571;DHT22;8903;52.220;20.978;2023-03-17T08:30:48;6.30;99.90
17571;DHT22;8903;52.220;20.978;2023-03-17T08:33:15;6.50;99.90
17571;DHT22;8903;52.220;20.978;2023-03-17T08:35:42;6.70;99.90
17571;DHT22;8903;52.220;20.978;2023-03-17T08:38:09;7.10;99.90
17571;DHT22;8903;52.220;20.978;2023-03-17T08:40:39;7.30;99.90
17571;DHT22;8903;52.220;20.978;2023-03-17T08:43:07;7.10;99.90
17571;DHT22;8903;52.220;20.978;2023-03-17T08:45:34;7.00;99.90
17571;DHT22;8903;52.220;20.978;2023-03-17T08:48:01;7.00;99.90
17571;DHT22;8903;52.220;20.978;2023-03-17T08:50:29;6.80;99.90
17571;DHT22;8903;52.220;20.978;2023-03-17T08:52:57;6.70;99.90
17571;DHT22;8903;52.220;20.978;2023-03-17T08:55:24;6.70;99.90
17571;DHT22;8903;52.220;20.978;2023-03-17T08:57:52;6.50;99.90
17571;DHT22;8903;52.220;20.978;2023-03-17T09:00:20;6.50;99.90
17571;DHT22;8903;52.220;20.978;2023-03-17T09:02:47;6.60;99.90
17571;DHT22;8903;52.220;20.978;2023-03-17T09:05:15;6.70;99.90
17571;DHT22;8903;52.220;20.978;2023-03-17T09:07:42;6.80;99.90
17571;DHT22;8903;52.220;20.978;2023-03-17T09:10:10;6.80;99.90
17571;DHT22;8903;52.220;20.978;2023-03-17T09:12:38;6.90;99.90
17571;DHT22;8903;52.220;20.978;2023-03-17T09:15:09;6.90;99.90
17571;DHT22;8903;52.220;20.978;2023-03-17T09:17:37;6.90;99.90
17571;DHT22;8903;52.220;20.978;2023-03-17T09:20:04;6.90;99.90
17571;DHT22;8903;52.220;20.978;2023-03-17T09:22:32;6.90;99.90
17571;DHT22;8903;52.220;20.978;2023-03-17T09:24:59;6.90;99.90
17571;DHT22;8903;52.220;20.978;2023-03-17T09:27:26;7.00;99.90
17571;DHT22;8903;52.220;20.978;2023-03-17T09:29:53;7.20;99.90
17571;DHT22;8903;52.220;20.978;2023-03-17T09:32:22;7.30;99.90
17571;DHT22;8903;52.220;20.978;2023-03-17T09:34:49;7.40;99.90
17571;DHT22;8903;52.220;20.978;2023-03-17T09:37:16;7.50;99.90
17571;DHT22;8903;52.220;20.978;2023-03-17T09:39:43;7.40;99.90
17571;DHT22;8903;52.220;20.978;2023-03-17T09:42:25;7.40;99.90
17571;DHT22;8903;52.220;20.978;2023-03-17T09:45:05;7.60;99.90
17571;DHT22;8903;52.220;20.978;2023-03-17T09:47:52;7.60;99.90
17571;DHT22;8903;52.220;20.978;2023-03-17T09:50:24;7.70;99.90
17571;DHT22;8903;52.220;20.978;2023-03-17T09:52:54;7.70;99.90
17571;DHT22;8903;52.220;20.978;2023-03-17T09:55:26;7.90;99.90
17571;DHT22;8903;52.220;20.978;2023-03-17T09:57:55;8.00;99.90
17571;DHT22;8903;52.220;20.978;2023-03-17T10:00:25;8.20;99.90
17571;DHT22;8903;52.220;20.978;2023-03-17T10:02:55;8.10;99.90
17571;DHT22;8903;52.220;20.978;2023-03-17T10:05:24;8.20;99.90
17571;DHT22;8903;52.220;20.978;2023-03-17T10:08:00;8.20;99.90
17571;DHT22;8903;52.220;20.978;2023-03-17T10:10:33;8.20;99.90
17571;DHT22;8903;52.220;20.978;2023-03-17T10:13:08;8.30;99.90
17571;DHT22;8903;52.220;20.978;2023-03-17T10:15:44;8.40;99.90
17571;DHT22;8903;52.220;20.978;2023-03-17T10:18:15;8.50;99.80
17571;DHT22;8903;52.220;20.978;2023-03-17T10:20:47;8.60;99.20
17571;DHT22;8903;52.220;20.978;2023-03-17T10:23:18;8.70;99.00
17571;DHT22;8903;52.220;20.978;2023-03-17T10:25:46;8.80;99.10
17571;DHT22;8903;52.220;20.978;2023-03-17T10:28:23;8.90;98.80
17571;DHT22;8903;52.220;20.978;2023-03-17T10:30:52;8.80;98.10
17571;DHT22;8903;52.220;20.978;2023-03-17T10:33:21;8.80;98.50
17571;DHT22;8903;52.220;20.978;2023-03-17T10:35:48;8.80;98.70
17571;DHT22;8903;52.220;20.978;2023-03-17T10:38:17;9.00;98.90
17571;DHT22;8903;52.220;20.978;2023-03-17T10:40:46;9.10;98.60
17571;DHT22;8903;52.220;20.978;2023-03-17T10:43:18;9.20;98.70
17571;DHT22;8903;52.220;20.978;2023-03-17T10:45:54;9.20;98.50
17571;DHT22;8903;52.220;20.978;2023-03-17T10:48:25;9.30;98.50
17571;DHT22;8903;52.220;20.978;2023-03-17T10:50:54;9.40;98.30
17571;DHT22;8903;52.220;20.978;2023-03-17T10:53:24;9.30;98.40
17571;DHT22;8903;52.220;20.978;2023-03-17T10:55:56;9.20;98.60
17571;DHT22;8903;52.220;20.978;2023-03-17T10:58:34;9.30;98.70
17571;DHT22;8903;52.220;20.978;2023-03-17T11:01:04;9.60;98.50
17571;DHT22;8903;52.220;20.978;2023-03-17T11:03:36;9.60;97.70
17571;DHT22;8903;52.220;20.978;2023-03-17T11:06:06;9.60;97.40
17571;DHT22;8903;52.220;20.978;2023-03-17T11:08:38;9.70;97.40
17571;DHT22;8903;52.220;20.978;2023-03-17T11:11:09;9.80;97.30
17571;DHT22;8903;52.220;20.978;2023-03-17T11:13:36;9.90;97.50
17571;DHT22;8903;52.220;20.978;2023-03-17T11:16:08;9.80;97.00
17571;DHT22;8903;52.220;20.978;2023-03-17T11:18:41;9.90;97.20
17571;DHT22;8903;52.220;20.978;2023-03-17T11:21:10;10.10;97.20
17571;DHT22;8903;52.220;20.978;2023-03-17T11:23:45;10.10;97.00
17571;DHT22;8903;52.220;20.978;2023-03-17T11:26:44;10.30;97.30
17571;DHT22;8903;52.220;20.978;2023-03-17T11:29:23;10.20;97.20
17571;DHT22;8903;52.220;20.978;2023-03-17T11:31:59;10.40;97.40
17571;DHT22;8903;52.220;20.978;2023-03-17T11:34:43;10.50;96.70
17571;DHT22;8903;52.220;20.978;2023-03-17T11:37:24;10.40;96.70
17571;DHT22;8903;52.220;20.978;2023-03-17T11:40:02;10.30;97.00
17571;DHT22;8903;52.220;20.978;2023-03-17T11:42:36;10.50;97.00
17571;DHT22;8903;52.220;20.978;2023-03-17T11:45:15;11.50;96.20
17571;DHT22;8903;52.220;20.978;2023-03-17T11:47:53;12.50;95.20
17571;DHT22;8903;52.220;20.978;2023-03-17T11:50:28;12.60;94.40
17571;DHT22;8903;52.220;20.978;2023-03-17T11:53:29;12.70;94.60
17571;DHT22;8903;52.220;20.978;2023-03-17T11:56:05;13.00;93.90
17571;DHT22;8903;52.220;20.978;2023-03-17T11:58:36;12.80;94.00
17571;DHT22;8903;52.220;20.978;2023-03-17T12:01:06;12.80;94.40
17571;DHT22;8903;52.220;20.978;2023-03-17T12:03:38;12.90;94.10
17571;DHT22;8903;52.220;20.978;2023-03-17T12:06:12;13.10;93.90
17571;DHT22;8903;52.220;20.978;2023-03-17T12:08:45;13.10;93.90
17571;DHT22;8903;52.220;20.978;2023-03-17T12:11:18;13.30;93.30
17571;DHT22;8903;52.220;20.978;2023-03-17T12:13:50;13.70;93.80
17571;DHT22;8903;52.220;20.978;2023-03-17T12:16:23;14.10;93.10
17571;DHT22;8903;52.220;20.978;2023-03-17T12:18:58;14.60;92.20
17571;DHT22;8903;52.220;20.978;2023-03-17T12:21:32;15.50;91.00
17571;DHT22;8903;52.220;20.978;2023-03-17T12:24:04;15.80;90.80
17571;DHT22;8903;52.220;20.978;2023-03-17T12:26:37;15.10;90.80
17571;DHT22;8903;52.220;20.978;2023-03-17T12:29:11;14.80;91.60
17571;DHT22;8903;52.220;20.978;2023-03-17T12:31:43;14.60;92.20
17571;DHT22;8903;52.220;20.978;2023-03-17T12:34:18;14.10;92.30
17571;DHT22;8903;52.220;20.978;2023-03-17T12:36:48;13.70;92.70
17571;DHT22;8903;52.220;20.978;2023-03-17T12:39:19;13.20;92.90
17571;DHT22;8903;52.220;20.978;2023-03-17T12:42:05;12.70;92.80
17571;DHT22;8903;52.220;20.978;2023-03-17T12:44:51;12.50;93.10
17571;DHT22;8903;52.220;20.978;2023-03-17T12:47:32;12.30;93.60
17571;DHT22;8903;52.220;20.978;2023-03-17T12:50:19;12.30;93.80
17571;DHT22;8903;52.220;20.978;2023-03-17T12:53:14;12.10;93.50
17571;DHT22;8903;52.220;20.978;2023-03-17T12:55:45;12.20;94.10
17571;DHT22;8903;52.220;20.978;2023-03-17T12:58:27;12.30;93.90
17571;DHT22;8903;52.220;20.978;2023-03-17T13:01:02;12.20;93.80
17571;DHT22;8903;52.220;20.978;2023-03-17T13:03:32;11.80;93.70
17571;DHT22;8903;52.220;20.978;2023-03-17T13:06:03;11.60;94.10
17571;DHT22;8903;52.220;20.978;2023-03-17T13:08:35;11.30;94.00
17571;DHT22;8903;52.220;20.978;2023-03-17T13:11:25;11.20;94.60
17571;DHT22;8903;52.220;20.978;2023-03-17T13:14:13;11.20;93.90
17571;DHT22;8903;52.220;20.978;2023-03-17T13:16:41;11.10;93.80
17571;DHT22;8903;52.220;20.978;2023-03-17T13:19:17;11.00;94.10
17571;DHT22;8903;52.220;20.978;2023-03-17T13:21:50;11.00;94.30
17571;DHT22;8903;52.220;20.978;2023-03-17T13:24:35;11.10;94.70
17571;DHT22;8903;52.220;20.978;2023-03-17T13:27:10;11.00;94.50
17571;DHT22;8903;52.220;20.978;2023-03-17T13:29:47;10.80;94.00
17571;DHT22;8903;52.220;20.978;2023-03-17T13:32:31;10.70;94.20
17571;DHT22;8903;52.220;20.978;2023-03-17T13:35:19;10.60;94.10
17571;DHT22;8903;52.220;20.978;2023-03-17T13:38:11;10.60;94.40
17571;DHT22;8903;52.220;20.978;2023-03-17T13:40:52;10.60;94.10
17571;DHT22;8903;52.220;20.978;2023-03-17T13:43:37;10.60;93.90
17571;DHT22;8903;52.220;20.978;2023-03-17T13:46:19;10.60;94.50
17571;DHT22;8903;52.220;20.978;2023-03-17T13:48:47;10.50;94.30
17571;DHT22;8903;52.220;20.978;2023-03-17T13:51:18;10.60;94.50
17571;DHT22;8903;52.220;20.978;2023-03-17T13:53:50;10.70;94.80
17571;DHT22;8903;52.220;20.978;2023-03-17T13:56:24;10.80;94.30
17571;DHT22;8903;52.220;20.978;2023-03-17T13:59:04;10.90;94.30
17571;DHT22;8903;52.220;20.978;2023-03-17T14:01:35;11.10;94.20
17571;DHT22;8903;52.220;20.978;2023-03-17T14:04:05;11.10;94.40
17571;DHT22;8903;52.220;20.978;2023-03-17T14:06:38;11.00;94.00
17571;DHT22;8903;52.220;20.978;2023-03-17T14:09:08;11.00;94.10
17571;DHT22;8903;52.220;20.978;2023-03-17T14:11:39;11.00;94.00
17571;DHT22;8903;52.220;20.978;2023-03-17T14:14:13;11.10;94.00
17571;DHT22;8903;52.220;20.978;2023-03-17T14:16:44;11.00;94.10
17571;DHT22;8903;52.220;20.978;2023-03-17T14:19:18;11.20;93.80
17571;DHT22;8903;52.220;20.978;2023-03-17T14:21:46;11.30;93.50
17571;DHT22;8903;52.220;20.978;2023-03-17T14:24:18;11.60;93.30
17571;DHT22;8903;52.220;20.978;2023-03-17T14:26:48;11.70;93.00
17571;DHT22;8903;52.220;20.978;2023-03-17T14:29:17;11.60;92.90
17571;DHT22;8903;52.220;20.978;2023-03-17T14:31:46;11.90;93.20
17571;DHT22;8903;52.220;20.978;2023-03-17T14:34:15;12.20;92.90
17571;DHT22;8903;52.220;20.978;2023-03-17T14:36:42;12.30;92.80
17571;DHT22;8903;52.220;20.978;2023-03-17T14:39:21;12.40;92.70
17571;DHT22;8903;52.220;20.978;2023-03-17T14:41:59;12.10;92.40
17571;DHT22;8903;52.220;20.978;2023-03-17T14:44:26;11.70;92.60
17571;DHT22;8903;52.220;20.978;2023-03-17T14:47:01;11.20;93.20
17571;DHT22;8903;52.220;20.978;2023-03-17T14:49:29;11.10;93.50
17571;DHT22;8903;52.220;20.978;2023-03-17T14:51:59;11.00;93.60
17571;DHT22;8903;52.220;20.978;2023-03-17T14:54:30;11.00;93.70
17571;DHT22;8903;52.220;20.978;2023-03-17T14:57:03;10.90;93.60
17571;DHT22;8903;52.220;20.978;2023-03-17T14:59:33;10.80;93.80
17571;DHT22;8903;52.220;20.978;2023-03-17T15:02:06;10.70;93.70
17571;DHT22;8903;52.220;20.978;2023-03-17T15:04:33;10.70;93.60
17571;DHT22;8903;52.220;20.978;2023-03-17T15:07:02;10.70;93.70
17571;DHT22;8903;52.220;20.978;2023-03-17T15:09:34;10.60;93.50
17571;DHT22;8903;52.220;20.978;2023-03-17T15:12:05;10.30;93.70
17571;DHT22;8903;52.220;20.978;2023-03-17T15:14:35;10.30;93.80
17571;DHT22;8903;52.220;20.978;2023-03-17T15:17:06;10.40;93.90
17571;DHT22;8903;52.220;20.978;2023-03-17T15:19:41;10.30;93.90
17571;DHT22;8903;52.220;20.978;2023-03-17T15:22:21;10.30;94.00
17571;DHT22;8903;52.220;20.978;2023-03-17T15:24:58;10.20;94.10
17571;DHT22;8903;52.220;20.978;2023-03-17T15:27:28;10.10;94.00
17571;DHT22;8903;52.220;20.978;2023-03-17T15:29:56;10.20;94.10
17571;DHT22;8903;52.220;20.978;2023-03-17T15:32:24;10.30;94.00
17571;DHT22;8903;52.220;20.978;2023-03-17T15:34:53;10.30;93.90
17571;DHT22;8903;52.220;20.978;2023-03-17T15:37:22;10.10;93.80
17571;DHT22;8903;52.220;20.978;2023-03-17T15:39:50;10.00;93.90
17571;DHT22;8903;52.220;20.978;2023-03-17T15:42:21;9.80;94.10
17571;DHT22;8903;52.220;20.978;2023-03-17T15:44:49;9.70;94.20
17571;DHT22;8903;52.220;20.978;2023-03-17T15:47:18;9.70;94.40
17571;DHT22;8903;52.220;20.978;2023-03-17T15:49:47;9.70;94.40
17571;DHT22;8903;52.220;20.978;2023-03-17T15:52:16;9.60;94.40
17571;DHT22;8903;52.220;20.978;2023-03-17T15:54:45;9.50;94.30
17571;DHT22;8903;52.220;20.978;2023-03-17T15:57:12;9.40;94.50
17571;DHT22;8903;52.220;20.978;2023-03-17T15:59:39;9.40;94.60